createdAt,value
2022-12-07T00:01:29.464Z,21.31
2022-12-07T00:03:58.853Z,20.26
2022-12-07T00:06:25.870Z,20.35
2022-12-07T00:08:52.757Z,20.61
2022-12-07T00:11:22.365Z,20.24
2022-12-07T00:13:54.644Z,20.54
2022-12-07T00:16:23.872Z,19.82
2022-12-07T00:18:51.232Z,19.84
2022-12-07T00:21:21.811Z,19.32
2022-12-07T00:23:50.700Z,19.84
2022-12-07T00:26:26.449Z,19.71
2022-12-07T00:28:56.939Z,19.38
2022-12-07T00:31:27.833Z,20.09
2022-12-07T00:33:54.937Z,20.40
2022-12-07T00:36:26.920Z,21.05
2022-12-07T00:38:55.713Z,20.67
2022-12-07T00:41:25.476Z,21.34
2022-12-07T00:43:52.536Z,20.67
2022-12-07T00:46:21.080Z,21.18
2022-12-07T00:48:49.047Z,21.93
2022-12-07T00:51:18.330Z,21.60
2022-12-07T00:53:49.693Z,22.21
2022-12-07T00:56:22.401Z,22.04
2022-12-07T00:59:00.355Z,22.09
2022-12-07T01:01:30.528Z,21.72
2022-12-07T01:03:57.736Z,22.41
2022-12-07T01:06:26.060Z,22.61
2022-12-07T01:08:53.992Z,23.67
2022-12-07T01:11:26.166Z,22.63
2022-12-07T01:13:54.972Z,22.81
2022-12-07T01:16:24.072Z,22.41
2022-12-07T01:18:53.504Z,21.95
2022-12-07T01:21:25.224Z,22.59
2022-12-07T01:23:52.855Z,21.90
2022-12-07T01:26:22.805Z,22.52
2022-12-07T01:28:52.123Z,21.29
2022-12-07T01:31:21.959Z,21.38
2022-12-07T01:33:52.244Z,21.78
2022-12-07T01:36:22.300Z,22.01
2022-12-07T01:38:50.950Z,22.55
2022-12-07T01:41:17.823Z,22.98
2022-12-07T01:44:15.246Z,22.45
2022-12-07T01:46:44.447Z,22.24
2022-12-07T01:49:19.641Z,21.70
2022-12-07T01:51:50.055Z,21.69
2022-12-07T01:54:19.183Z,21.70
2022-12-07T01:56:54.286Z,21.54
2022-12-07T01:59:24.680Z,21.27
2022-12-07T02:01:52.407Z,21.26
2022-12-07T02:04:19.598Z,20.75
2022-12-07T02:06:48.207Z,21.43
2022-12-07T02:09:15.253Z,21.38
2022-12-07T02:11:42.612Z,21.28
2022-12-07T02:14:09.265Z,20.28
2022-12-07T02:17:01.989Z,20.70
2022-12-07T02:19:58.467Z,20.65
2022-12-07T02:22:51.709Z,19.80
2022-12-07T02:25:40.447Z,19.27
2022-12-07T02:28:20.282Z,19.33
2022-12-07T02:30:51.004Z,19.48
2022-12-07T02:33:29.187Z,19.07
2022-12-07T02:36:05.382Z,19.59
2022-12-07T02:38:40.638Z,19.06
2022-12-07T02:41:22.608Z,19.25
2022-12-07T02:43:57.321Z,19.22
2022-12-07T02:46:34.101Z,18.28
2022-12-07T02:49:01.261Z,18.68
2022-12-07T02:51:32.182Z,19.14
2022-12-07T02:53:59.819Z,19.31
2022-12-07T02:56:35.635Z,18.52
2022-12-07T02:59:11.794Z,18.93
2022-12-07T03:01:50.934Z,19.05
2022-12-07T03:04:20.631Z,18.84
2022-12-07T03:06:59.479Z,18.60
2022-12-07T03:10:04.679Z,18.05
2022-12-07T03:13:02.599Z,18.80
2022-12-07T03:15:34.517Z,18.05
2022-12-07T03:18:06.253Z,17.93
2022-12-07T03:20:38.176Z,18.32
2022-12-07T03:23:10.897Z,18.84
2022-12-07T03:25:47.638Z,18.48
2022-12-07T03:28:20.182Z,18.44
2022-12-07T03:31:15.017Z,17.91
2022-12-07T03:34:00.536Z,18.25
2022-12-07T03:36:36.955Z,18.43
2022-12-07T03:39:32.132Z,18.66
2022-12-07T03:42:03.560Z,18.84
2022-12-07T03:44:30.399Z,18.59
2022-12-07T03:47:19.583Z,19.52
2022-12-07T03:50:09.278Z,20.52
2022-12-07T03:52:44.532Z,18.58
2022-12-07T03:55:23.143Z,18.98
2022-12-07T03:57:57.536Z,19.30
2022-12-07T04:00:24.482Z,19.91
2022-12-07T04:02:53.681Z,18.86
2022-12-07T04:05:20.672Z,18.47
2022-12-07T04:07:47.432Z,18.61
2022-12-07T04:10:14.213Z,19.33
2022-12-07T04:12:56.260Z,18.62
2022-12-07T04:15:43.017Z,18.33
2022-12-07T04:18:09.728Z,18.25
2022-12-07T04:20:38.766Z,18.37
2022-12-07T04:23:05.439Z,18.85
2022-12-07T04:25:32.158Z,19.41
2022-12-07T04:27:58.987Z,19.72
2022-12-07T04:30:25.610Z,19.04
2022-12-07T04:32:52.304Z,19.13
2022-12-07T04:35:19.049Z,19.15
2022-12-07T04:37:45.804Z,18.31
2022-12-07T04:40:12.711Z,18.34
2022-12-07T04:42:39.510Z,19.13
2022-12-07T04:45:06.920Z,19.39
2022-12-07T04:47:33.993Z,19.19
2022-12-07T04:50:01.036Z,18.85
2022-12-07T04:52:29.760Z,19.17
2022-12-07T04:54:56.645Z,18.80
2022-12-07T04:57:23.400Z,18.70
2022-12-07T04:59:50.117Z,19.17
2022-12-07T05:02:16.962Z,19.17
2022-12-07T05:04:43.838Z,18.89
2022-12-07T05:07:10.533Z,18.69
2022-12-07T05:09:37.357Z,18.12
2022-12-07T05:12:04.436Z,18.44
2022-12-07T05:14:31.500Z,18.62
2022-12-07T05:17:04.391Z,18.47
2022-12-07T05:19:31.213Z,18.61
2022-12-07T05:21:58.007Z,19.19
2022-12-07T05:24:25.796Z,19.27
2022-12-07T05:26:52.518Z,20.64
2022-12-07T05:29:19.252Z,20.86
2022-12-07T05:31:46.367Z,20.69
2022-12-07T05:34:14.051Z,20.76
2022-12-07T05:36:43.633Z,21.76
2022-12-07T05:39:11.364Z,21.27
2022-12-07T05:41:38.176Z,20.21
2022-12-07T05:44:06.572Z,20.97
2022-12-07T05:46:35.339Z,21.17
2022-12-07T05:49:02.966Z,21.41
2022-12-07T05:51:29.653Z,20.05
2022-12-07T05:53:56.390Z,22.35
2022-12-07T05:56:23.423Z,22.21
2022-12-07T05:58:50.108Z,21.47
2022-12-07T06:01:16.745Z,21.58
2022-12-07T06:03:45.945Z,21.25
2022-12-07T06:06:12.693Z,22.13
2022-12-07T06:08:39.335Z,22.47
2022-12-07T06:11:05.975Z,22.72
2022-12-07T06:13:32.608Z,22.64
2022-12-07T06:15:59.264Z,22.49
2022-12-07T06:18:25.916Z,22.37
2022-12-07T06:20:52.560Z,22.17
2022-12-07T06:23:19.168Z,22.55
2022-12-07T06:25:47.125Z,22.40
2022-12-07T06:28:13.754Z,22.89
2022-12-07T06:30:40.371Z,21.88
2022-12-07T06:33:07.026Z,22.78
2022-12-07T06:35:34.374Z,22.06
2022-12-07T06:38:01.030Z,22.44
2022-12-07T06:40:27.643Z,21.73
2022-12-07T06:42:54.316Z,22.90
2022-12-07T06:45:21.006Z,22.30
2022-12-07T06:47:47.677Z,22.90
2022-12-07T06:50:14.383Z,22.98
2022-12-07T06:52:40.980Z,22.23
2022-12-07T06:55:07.973Z,22.12
2022-12-07T06:57:34.627Z,21.27
2022-12-07T07:00:01.667Z,22.17
2022-12-07T07:02:28.771Z,21.56
2022-12-07T07:04:55.464Z,21.51
2022-12-07T07:07:22.100Z,22.29
2022-12-07T07:09:48.823Z,22.25
2022-12-07T07:12:15.443Z,21.96
2022-12-07T07:14:42.094Z,22.02
2022-12-07T07:17:08.875Z,21.33
2022-12-07T07:19:35.667Z,21.69
2022-12-07T07:22:02.734Z,22.14
2022-12-07T07:24:29.375Z,21.39
2022-12-07T07:26:55.997Z,21.62
2022-12-07T07:29:22.699Z,21.35
2022-12-07T07:31:49.470Z,21.80
2022-12-07T07:34:16.158Z,21.71
2022-12-07T07:36:43.064Z,23.09
2022-12-07T07:39:11.784Z,21.82
2022-12-07T07:41:38.397Z,21.70
2022-12-07T07:44:05.143Z,21.97
2022-12-07T07:46:32.090Z,20.87
2022-12-07T07:48:58.774Z,21.09
2022-12-07T07:51:25.519Z,21.57
2022-12-07T07:53:52.643Z,21.74
2022-12-07T07:56:20.597Z,21.61
2022-12-07T07:58:47.594Z,21.47
2022-12-07T08:01:14.245Z,20.91
2022-12-07T08:03:40.891Z,21.60
2022-12-07T08:06:07.533Z,21.46
2022-12-07T08:08:34.155Z,21.58
2022-12-07T08:11:00.822Z,20.67
2022-12-07T08:13:31.215Z,20.66
2022-12-07T08:15:58.934Z,19.90
2022-12-07T08:18:25.622Z,19.13
2022-12-07T08:20:52.248Z,18.57
2022-12-07T08:23:18.890Z,17.68
2022-12-07T08:25:45.677Z,16.35
2022-12-07T08:28:12.484Z,14.78
2022-12-07T08:30:39.230Z,14.32
2022-12-07T08:33:05.931Z,14.12
2022-12-07T08:35:34.623Z,14.41
2022-12-07T08:38:01.811Z,14.81
2022-12-07T08:40:29.344Z,13.79
2022-12-07T08:42:56.287Z,13.40
2022-12-07T08:45:27.114Z,12.99
2022-12-07T08:48:13.910Z,11.90
2022-12-07T08:50:45.980Z,12.58
2022-12-07T08:53:16.731Z,12.94
2022-12-07T08:55:47.258Z,14.32
2022-12-07T08:58:14.061Z,15.08
2022-12-07T09:00:40.726Z,15.09
2022-12-07T09:03:10.118Z,15.14
2022-12-07T09:05:39.826Z,14.77
2022-12-07T09:08:08.366Z,13.05
2022-12-07T09:10:35.034Z,11.47
2022-12-07T09:13:01.811Z,11.25
2022-12-07T09:15:30.131Z,11.20
2022-12-07T09:17:56.848Z,9.61
2022-12-07T09:20:27.855Z,8.89
2022-12-07T09:22:55.001Z,8.31
2022-12-07T09:25:21.885Z,8.71
2022-12-07T09:27:48.525Z,8.99
2022-12-07T09:30:15.991Z,9.17
2022-12-07T09:32:42.862Z,9.67
2022-12-07T09:35:09.813Z,9.60
2022-12-07T09:37:36.948Z,9.52
2022-12-07T09:40:05.717Z,10.30
2022-12-07T09:42:39.241Z,11.21
2022-12-07T09:45:12.732Z,12.34
2022-12-07T09:47:39.430Z,12.99
2022-12-07T09:50:14.877Z,12.50
2022-12-07T09:52:45.088Z,12.47
2022-12-07T09:55:15.090Z,12.64
2022-12-07T09:57:44.232Z,12.58
2022-12-07T10:00:18.053Z,12.25
2022-12-07T10:02:53.028Z,12.54
2022-12-07T10:05:26.855Z,13.25
2022-12-07T10:07:53.660Z,12.52
2022-12-07T10:10:35.275Z,11.78
2022-12-07T10:13:09.502Z,10.55
2022-12-07T10:15:54.681Z,11.15
2022-12-07T10:18:21.383Z,10.81
2022-12-07T10:20:49.385Z,11.08
2022-12-07T10:23:18.768Z,10.64
2022-12-07T10:25:46.320Z,10.86
2022-12-07T10:28:17.452Z,10.97
2022-12-07T10:30:54.767Z,10.67
2022-12-07T10:33:39.332Z,11.23
2022-12-07T10:36:34.936Z,10.77
2022-12-07T10:39:04.631Z,9.99
2022-12-07T10:41:31.717Z,10.37
2022-12-07T10:43:59.129Z,10.59
2022-12-07T10:47:14.746Z,10.55
2022-12-07T10:49:59.143Z,10.09
2022-12-07T10:52:31.706Z,10.68
2022-12-07T10:55:25.527Z,9.88
2022-12-07T10:57:58.216Z,10.27
2022-12-07T11:00:26.702Z,10.05
2022-12-07T11:03:17.400Z,9.61
2022-12-07T11:06:35.644Z,9.60
2022-12-07T11:09:51.859Z,9.55
2022-12-07T11:12:56.111Z,10.05
2022-12-07T11:15:38.280Z,9.50
2022-12-07T11:18:23.276Z,9.51
2022-12-07T11:21:11.146Z,9.27
2022-12-07T11:24:16.116Z,9.57
2022-12-07T11:26:57.825Z,10.29
2022-12-07T11:29:53.543Z,10.51
2022-12-07T11:32:45.486Z,10.46
2022-12-07T11:35:25.810Z,10.07
2022-12-07T11:38:08.342Z,10.80
2022-12-07T11:40:37.941Z,10.83
2022-12-07T11:43:28.156Z,11.38
2022-12-07T11:46:09.712Z,11.64
2022-12-07T11:48:42.671Z,12.02
2022-12-07T11:51:13.341Z,11.13
2022-12-07T11:53:49.140Z,11.84
2022-12-07T11:56:22.623Z,11.81
2022-12-07T11:58:53.591Z,11.52
2022-12-07T12:01:32.725Z,11.24
2022-12-07T12:04:07.346Z,11.29
2022-12-07T12:06:34.315Z,11.84
2022-12-07T12:15:13.550Z,12.47
2022-12-07T12:18:14.823Z,12.35
2022-12-07T12:21:03.849Z,13.02
2022-12-07T12:23:33.168Z,13.32
2022-12-07T12:26:05.400Z,12.53
2022-12-07T12:28:48.441Z,13.44
2022-12-07T12:31:20.160Z,13.40
2022-12-07T12:33:54.032Z,13.85
2022-12-07T12:36:26.045Z,13.30
2022-12-07T12:38:52.733Z,13.41
2022-12-07T12:41:43.716Z,13.29
2022-12-07T12:44:16.364Z,13.34
2022-12-07T12:47:04.349Z,13.92
2022-12-07T12:49:38.566Z,14.53
2022-12-07T12:52:14.597Z,14.13
2022-12-07T12:55:10.565Z,14.18
2022-12-07T12:57:37.999Z,14.65
2022-12-07T13:00:25.364Z,13.83
2022-12-07T13:02:56.915Z,13.99
2022-12-07T13:05:28.054Z,14.31
2022-12-07T13:07:57.964Z,14.01
2022-12-07T13:10:24.874Z,14.11
2022-12-07T13:13:24.492Z,14.12
2022-12-07T13:16:16.162Z,14.70
2022-12-07T13:18:43.644Z,13.89
2022-12-07T13:21:10.312Z,14.09
2022-12-07T13:24:00.371Z,14.04
2022-12-07T13:26:42.123Z,13.41
2022-12-07T13:29:08.791Z,14.48
2022-12-07T13:31:45.366Z,14.20
2022-12-07T13:34:32.238Z,13.42
2022-12-07T13:37:03.138Z,13.16
2022-12-07T13:39:30.070Z,13.72
2022-12-07T13:41:59.584Z,13.74
2022-12-07T13:44:28.112Z,13.82
2022-12-07T13:47:06.791Z,13.60
2022-12-07T13:49:40.344Z,13.66
2022-12-07T13:52:14.899Z,14.06
2022-12-07T13:54:58.383Z,13.69
2022-12-07T13:57:30.578Z,13.15
2022-12-07T14:00:00.081Z,13.58
2022-12-07T14:02:32.377Z,13.06
2022-12-07T14:05:25.597Z,13.53
2022-12-07T14:07:56.228Z,13.26
2022-12-07T14:10:32.738Z,13.53
2022-12-07T14:13:01.924Z,13.44
2022-12-07T14:15:32.770Z,14.01
2022-12-07T14:18:02.637Z,14.81
2022-12-07T14:20:41.833Z,14.40
2022-12-07T14:23:26.457Z,14.03
2022-12-07T14:25:54.687Z,14.00
2022-12-07T14:28:33.843Z,14.13
2022-12-07T14:31:02.472Z,14.76
2022-12-07T14:33:29.184Z,13.61
2022-12-07T14:35:56.791Z,14.48
2022-12-07T14:38:23.477Z,14.08
2022-12-07T14:40:50.619Z,13.22
2022-12-07T14:43:19.503Z,13.40
2022-12-07T14:45:47.009Z,13.07
2022-12-07T14:53:57.082Z,14.21
2022-12-07T14:56:25.464Z,14.89
2022-12-07T14:58:52.309Z,14.71
2022-12-07T15:01:19.030Z,14.72
2022-12-07T15:03:45.795Z,14.71
2022-12-07T15:06:17.302Z,15.31
2022-12-07T15:08:44.574Z,15.75
2022-12-07T15:11:20.268Z,15.76
2022-12-07T15:13:46.907Z,15.75
2022-12-07T15:16:20.484Z,16.37
2022-12-07T15:19:04.869Z,15.34
2022-12-07T15:21:33.969Z,15.10
2022-12-07T15:24:00.640Z,14.60
2022-12-07T15:26:27.456Z,13.87
2022-12-07T15:28:55.657Z,14.27
2022-12-07T15:31:53.372Z,14.31
2022-12-07T15:34:08.923Z,14.11
2022-12-07T15:36:36.376Z,14.20
2022-12-07T15:39:14.040Z,14.17
2022-12-07T15:41:41.564Z,13.20
2022-12-07T15:44:13.083Z,13.98
2022-12-07T15:46:41.897Z,14.05
2022-12-07T15:49:18.165Z,13.93
2022-12-07T15:51:46.027Z,15.15
2022-12-07T15:54:27.654Z,14.34
2022-12-07T15:56:55.094Z,13.70
2022-12-07T15:59:22.856Z,13.81
2022-12-07T16:01:52.594Z,14.75
2022-12-07T16:04:19.392Z,13.61
2022-12-07T16:06:46.019Z,13.29
2022-12-07T16:09:12.664Z,13.32
2022-12-07T16:11:39.420Z,13.44
2022-12-07T16:14:06.019Z,12.93
2022-12-07T16:16:34.009Z,13.30
2022-12-07T16:19:00.752Z,12.41
2022-12-07T16:21:27.442Z,12.41
2022-12-07T16:23:54.070Z,12.67
2022-12-07T16:26:22.899Z,12.65
2022-12-07T16:28:51.930Z,12.87
2022-12-07T16:31:22.176Z,12.62
2022-12-07T16:33:50.210Z,11.91
2022-12-07T16:36:34.009Z,12.08
2022-12-07T16:39:05.634Z,11.34
2022-12-07T16:41:32.978Z,12.39
2022-12-07T16:44:05.573Z,12.01
2022-12-07T16:46:34.086Z,12.07
2022-12-07T16:49:01.052Z,12.61
2022-12-07T16:51:27.747Z,11.79
2022-12-07T16:53:55.016Z,11.52
2022-12-07T16:56:21.759Z,11.38
2022-12-07T16:58:48.579Z,11.11
2022-12-07T17:01:18.013Z,10.93
2022-12-07T17:03:47.221Z,10.88
2022-12-07T17:06:20.421Z,10.31
2022-12-07T17:08:47.813Z,10.14
2022-12-07T17:11:18.008Z,10.09
2022-12-07T17:13:45.356Z,10.15
2022-12-07T17:16:12.141Z,10.08
2022-12-07T17:18:38.899Z,10.05
2022-12-07T17:21:10.044Z,9.88
2022-12-07T17:23:37.926Z,10.72
2022-12-07T17:26:10.860Z,10.62
2022-12-07T17:28:38.164Z,10.06
2022-12-07T17:31:11.088Z,10.34
2022-12-07T17:33:38.196Z,10.50
2022-12-07T17:36:21.964Z,11.01
2022-12-07T17:38:49.415Z,10.33
2022-12-07T17:41:22.631Z,10.06
2022-12-07T17:43:49.373Z,13.53
2022-12-07T17:46:16.157Z,19.71
2022-12-07T17:48:43.061Z,19.94
2022-12-07T17:51:09.765Z,12.41
2022-12-07T17:53:36.496Z,12.57
2022-12-07T17:56:27.502Z,13.97
2022-12-07T17:58:49.919Z,18.97
2022-12-07T18:01:21.891Z,19.17
2022-12-07T18:03:50.503Z,14.18
2022-12-07T18:06:17.261Z,14.97
2022-12-07T18:08:45.343Z,15.94
2022-12-07T18:11:14.088Z,25.54
2022-12-07T18:13:40.831Z,20.12
2022-12-07T18:16:11.728Z,29.54
2022-12-07T18:18:39.552Z,27.00
2022-12-07T18:21:18.675Z,18.48
2022-12-07T18:23:48.550Z,18.72
2022-12-07T18:26:17.487Z,17.67
2022-12-07T18:28:45.307Z,17.46
2022-12-07T18:31:15.349Z,17.81
2022-12-07T18:33:44.081Z,18.60
2022-12-07T18:36:11.528Z,18.00
2022-12-07T18:38:39.004Z,16.62
2022-12-07T18:41:11.473Z,15.77
2022-12-07T18:43:38.418Z,14.70
2022-12-07T18:46:22.094Z,16.96
2022-12-07T18:48:51.467Z,14.02
2022-12-07T18:51:19.757Z,12.69
2022-12-07T18:53:46.894Z,13.49
2022-12-07T18:56:22.387Z,12.83
2022-12-07T18:58:55.184Z,13.02
2022-12-07T19:01:22.029Z,13.02
2022-12-07T19:03:49.029Z,14.06
2022-12-07T19:06:15.710Z,13.74
2022-12-07T19:08:43.101Z,14.78
2022-12-07T19:11:23.384Z,14.88
2022-12-07T19:13:50.739Z,14.70
2022-12-07T19:16:17.658Z,14.36
2022-12-07T19:18:50.819Z,15.17
2022-12-07T19:21:18.958Z,15.27
2022-12-07T19:23:47.130Z,15.06
2022-12-07T19:26:13.863Z,16.10
2022-12-07T19:28:40.737Z,16.09
2022-12-07T19:31:08.872Z,21.83
2022-12-07T19:33:35.533Z,19.78
2022-12-07T19:36:02.275Z,20.04
2022-12-07T19:38:30.767Z,22.24
2022-12-07T19:41:08.877Z,21.66
2022-12-07T19:43:35.516Z,21.82
2022-12-07T19:46:06.344Z,17.42
2022-12-07T19:48:33.175Z,17.34
2022-12-07T19:51:04.337Z,17.60
2022-12-07T19:53:34.106Z,17.86
2022-12-07T19:56:01.891Z,18.50
2022-12-07T19:58:28.700Z,15.26
2022-12-07T20:00:57.743Z,15.08
2022-12-07T20:03:26.961Z,16.15
2022-12-07T20:05:53.781Z,18.60
2022-12-07T20:08:20.665Z,18.59
2022-12-07T20:10:47.873Z,18.45
2022-12-07T20:13:14.555Z,19.39
2022-12-07T20:15:41.460Z,17.76
2022-12-07T20:18:08.175Z,17.35
2022-12-07T20:20:34.894Z,15.97
2022-12-07T20:23:01.701Z,14.48
2022-12-07T20:25:29.154Z,15.34
2022-12-07T20:27:55.844Z,15.07
2022-12-07T20:30:22.580Z,18.20
2022-12-07T20:32:49.692Z,16.11
2022-12-07T20:35:16.520Z,14.55
2022-12-07T20:37:43.289Z,13.07
2022-12-07T20:40:10.470Z,18.17
2022-12-07T20:42:37.371Z,15.91
2022-12-07T20:45:06.131Z,16.03
2022-12-07T20:47:33.081Z,18.71
2022-12-07T20:49:59.818Z,16.56
2022-12-07T20:52:26.589Z,18.83
2022-12-07T20:54:53.614Z,17.60
2022-12-07T20:57:20.463Z,14.82
2022-12-07T20:59:47.288Z,16.48
2022-12-07T21:02:14.418Z,14.68
2022-12-07T21:04:41.740Z,14.42
2022-12-07T21:07:09.003Z,14.22
2022-12-07T21:09:36.732Z,14.29
2022-12-07T21:12:03.720Z,14.96
2022-12-07T21:14:30.684Z,14.49
2022-12-07T21:16:57.541Z,16.69
2022-12-07T21:19:24.380Z,15.65
2022-12-07T21:21:51.964Z,14.91
2022-12-07T21:24:18.741Z,14.27
2022-12-07T21:26:45.622Z,14.82
2022-12-07T21:29:12.307Z,14.45
2022-12-07T21:31:40.321Z,14.00
2022-12-07T21:34:07.780Z,14.08
2022-12-07T21:36:35.817Z,13.16
2022-12-07T21:39:03.440Z,12.89
2022-12-07T21:41:32.747Z,12.23
2022-12-07T21:43:59.821Z,12.45
2022-12-07T21:46:34.745Z,12.14
2022-12-07T21:49:05.596Z,12.04
2022-12-07T21:51:33.272Z,12.09
2022-12-07T21:54:01.699Z,11.77
2022-12-07T21:56:35.106Z,12.23
2022-12-07T21:59:07.864Z,12.03
2022-12-07T22:01:38.330Z,11.78
2022-12-07T22:04:16.249Z,11.79
2022-12-07T22:06:44.196Z,11.79
2022-12-07T22:09:11.054Z,11.97
2022-12-07T22:11:38.134Z,11.92
2022-12-07T22:14:10.236Z,11.92
2022-12-07T22:16:38.700Z,12.03
2022-12-07T22:19:06.844Z,12.66
2022-12-07T22:21:35.022Z,12.57
2022-12-07T22:24:02.652Z,12.82
2022-12-07T22:26:29.401Z,13.23
2022-12-07T22:28:56.157Z,12.68
2022-12-07T22:31:23.850Z,13.01
2022-12-07T22:33:51.866Z,13.33
2022-12-07T22:36:19.439Z,13.34
2022-12-07T22:38:47.556Z,13.43
2022-12-07T22:41:24.282Z,13.20
2022-12-07T22:43:51.030Z,13.34
2022-12-07T22:46:17.868Z,13.41
2022-12-07T22:48:44.956Z,13.51
2022-12-07T22:51:32.736Z,13.59
2022-12-07T22:54:01.231Z,13.80
2022-12-07T22:56:30.505Z,13.75
2022-12-07T22:58:57.333Z,13.79
2022-12-07T23:01:24.408Z,14.23
2022-12-07T23:03:52.899Z,14.33
2022-12-07T23:06:25.499Z,14.73
2022-12-07T23:08:52.880Z,15.04
2022-12-07T23:11:23.457Z,14.50
2022-12-07T23:13:50.079Z,14.50
2022-12-07T23:16:16.748Z,14.67
2022-12-07T23:18:43.953Z,15.18
2022-12-07T23:21:10.660Z,14.32
2022-12-07T23:23:37.321Z,15.21
2022-12-07T23:26:09.939Z,15.06
2022-12-07T23:28:38.756Z,15.29
2022-12-07T23:31:11.265Z,14.80
2022-12-07T23:33:38.592Z,15.65
2022-12-07T23:36:08.435Z,15.41
2022-12-07T23:38:35.242Z,15.76
2022-12-07T23:41:10.369Z,15.39
2022-12-07T23:43:37.627Z,16.03
2022-12-07T23:46:12.780Z,16.19
2022-12-07T23:48:40.344Z,16.41
2022-12-07T23:51:09.219Z,16.44
2022-12-07T23:53:37.666Z,16.43
2022-12-07T23:56:06.190Z,16.55
2022-12-07T23:58:32.807Z,16.11
